Time;durP1;ratioP1;P1;durP2;ratioP2;P2;SDS_P1;SDS_P2;PMS_P1;PMS_P2;Temp;Humidity;BMP_temperature;BMP_pressure;BME280_temperature;BME280_humidity;BME280_pressure;Samples;Min_cycle;Max_cycle;Signal;HPM_P1;HPM_P2
2022/12/17 13:06:39;;;;;;;;;;;;;;;;;;5111344;28;1271;-40
2022/12/17 13:09:15;;;;;;;;;;;;;;;;;;5127207;27;2374;-42
2022/12/17 13:11:44;;;;;;;;;;;;;;;;;;5111185;28;1273;-41
2022/12/17 13:14:31;;;;;;;;;;;;;;;;;;5111364;28;1982;-41
2022/12/17 13:17:04;;;;;;;;;;;;;;;;;;5079892;28;1224;-42
2022/12/17 13:19:40;;;;;;;;;;;;;;;;;;5111289;28;1185;-41
2022/12/17 13:22:09;;;;;;;;;;;;;;;;;;5111245;28;1054;-43
2022/12/17 13:24:36;;;;;;;;;;;;;;;;;;5111427;28;1193;-40
2022/12/17 13:27:03;;;;;;;;;;;;;;;;;;5115052;28;988;-41
2022/12/17 13:29:34;;;;;;;;;;;;;;;;;;5115451;28;1209;-41
2022/12/17 13:32:11;;;;;;;;;;;;;;;;;;5115431;28;1360;-42
2022/12/17 13:34:45;;;;;;;;;;;;;;;;;;5115349;28;1992;-40
2022/12/17 13:37:12;;;;;;;;;;;;;;;;;;5114792;28;1026;-41
2022/12/17 13:39:39;;;;;;;;;;;;;;;;;;5115086;28;1010;-40
2022/12/17 13:42:15;;;;;;;;;;;;;;;;;;5114897;28;1064;-41
2022/12/17 13:44:44;;;;;;;;;;;;;;;;;;5115330;28;1170;-42
2022/12/17 13:47:37;;;;;;;;;;;;;;;;;;5115419;28;1091;-42
2022/12/17 13:50:18;;;;;;;;;;;;;;;;;;5111910;28;1670;-41
2022/12/17 13:53:09;;;;;;;;;;;;;;;;;;5115043;28;1970;-41
2022/12/17 13:55:36;;;;;;;;;;;;;;;;;;5115205;28;1209;-43
2022/12/17 13:58:04;;;;;;;;;;;;;;;;;;5114795;28;1102;-41
2022/12/17 14:00:31;;;;;;;;;;;;;;;;;;5114824;28;1178;-41
2022/12/17 14:03:08;;;;;;;;;;;;;;;;;;5114613;28;1103;-43
2022/12/17 14:05:37;;;;;;;;;;;;;;;;;;5113569;28;1117;-40
2022/12/17 14:08:04;;;;;;;;;;;;;;;;;;5114923;28;1400;-42
2022/12/17 14:10:31;;;;;;;;;;;;;;;;;;5113462;28;1218;-42
2022/12/17 14:13:13;;;;;;;;;;;;;;;;;;5114542;28;1311;-42
2022/12/17 14:15:46;;;;;;;;;;;;;;;;;;5114556;28;970;-42
2022/12/17 14:18:14;;;;;;;;;;;;;;;;;;5114612;28;1028;-40
2022/12/17 14:20:42;;;;;;;;;;;;;;;;;;5114614;28;1082;-41
2022/12/17 14:23:25;;;;;;;;;;;;;;;;;;5114334;28;1057;-42
2022/12/17 14:25:53;;;;;;;;;;;;;;;;;;5114627;28;988;-39
2022/12/17 14:28:23;;;;;;;;;;;;;;;;;;5114577;28;1106;-42
2022/12/17 14:30:50;;;;;;;;;;;;;;;;;;5114278;28;947;-41
2022/12/17 14:33:37;;;;;;;;;;;;;;;;;;5113789;28;1916;-42
2022/12/17 14:36:07;;;;;;;;;;;;;;;;;;5114465;28;1078;-41
2022/12/17 14:38:35;;;;;;;;;;;;;;;;;;5113471;28;1033;-42
2022/12/17 14:44:01;;;;;;;;;;;;;;;;;;5114252;28;1183;-42
2022/12/17 14:46:29;;;;;;;;;;;;;;;;;;5114043;28;979;-41
2022/12/17 14:49:00;;;;;;;;;;;;;;;;;;5114000;28;1011;-40
2022/12/17 14:51:34;;;;;;;;;;;;;;;;;;5114196;27;1076;-43
2022/12/17 14:54:15;;;;;;;;;;;;;;;;;;5114010;28;1973;-41
2022/12/17 14:56:42;;;;;;;;;;;;;;;;;;5113599;28;1037;-42
2022/12/17 14:59:23;;;;;;;;;;;;;;;;;;5113277;28;1392;-40
2022/12/17 15:01:50;;;;;;;;;;;;;;;;;;5113294;28;1098;-41
2022/12/17 15:04:22;;;;;;;;;;;;;;;;;;5113392;28;1171;-42
2022/12/17 15:06:49;;;;;;;;;;;;;;;;;;5113840;28;967;-42
2022/12/17 15:09:16;;;;;;;;;;;;;;;;;;5113514;28;1113;-40
2022/12/17 15:11:44;;;;;;;;;;;;;;;;;;5113165;28;1434;-41
2022/12/17 15:14:11;;;;;;;;;;;;;;;;;;5113317;28;1978;-41
2022/12/17 15:16:38;;;;;;;;;;;;;;;;;;5113552;28;1156;-41
2022/12/17 15:19:05;;;;;;;;;;;;;;;;;;5113487;28;1368;-42
2022/12/17 15:21:32;;;;;;;;;;;;;;;;;;5111847;28;1325;-41
2022/12/17 15:24:00;;;;;;;;;;;;;;;;;;5113367;28;1011;-42
2022/12/17 15:26:27;;;;;;;;;;;;;;;;;;5113182;28;1075;-41
2022/12/17 15:28:54;;;;;;;;;;;;;;;;;;5113674;27;1005;-41
2022/12/17 15:31:23;;;;;;;;;;;;;;;;;;5113273;28;921;-40
2022/12/17 15:33:52;;;;;;;;;;;;;;;;;;5113246;28;1903;-41
2022/12/17 15:36:19;;;;;;;;;;;;;;;;;;5111854;28;1108;-41
2022/12/17 15:38:46;;;;;;;;;;;;;;;;;;5113030;28;1095;-41
2022/12/17 15:44:00;;;;;;;;;;;;;;;;;;5112890;28;1098;-40
2022/12/17 15:46:28;;;;;;;;;;;;;;;;;;5113083;28;1097;-40
2022/12/17 15:48:55;;;;;;;;;;;;;;;;;;5111854;28;1039;-41
2022/12/17 15:51:22;;;;;;;;;;;;;;;;;;5112814;28;1074;-41
2022/12/17 15:53:50;;;;;;;;;;;;;;;;;;5112676;28;1970;-42
2022/12/17 15:56:19;;;;;;;;;;;;;;;;;;5112848;28;942;-41
2022/12/17 15:58:46;;;;;;;;;;;;;;;;;;5112730;28;994;-40
2022/12/17 16:01:14;;;;;;;;;;;;;;;;;;5112838;28;1356;-41
2022/12/17 16:03:41;;;;;;;;;;;;;;;;;;5112377;28;1090;-41
2022/12/17 16:06:08;;;;;;;;;;;;;;;;;;5111922;28;1282;-44
2022/12/17 16:08:37;;;;;;;;;;;;;;;;;;5112499;28;939;-41
2022/12/17 16:11:08;;;;;;;;;;;;;;;;;;5112530;28;1314;-41
2022/12/17 16:13:35;;;;;;;;;;;;;;;;;;5112196;28;1970;-41
2022/12/17 16:16:03;;;;;;;;;;;;;;;;;;5111499;28;1258;-41
2022/12/17 16:18:30;;;;;;;;;;;;;;;;;;5112144;28;1235;-41
2022/12/17 16:21:03;;;;;;;;;;;;;;;;;;5112378;28;1001;-41
2022/12/17 16:23:31;;;;;;;;;;;;;;;;;;5111797;28;1162;-42
2022/12/17 16:26:03;;;;;;;;;;;;;;;;;;5112032;28;1037;-42
2022/12/17 16:28:30;;;;;;;;;;;;;;;;;;5112083;28;1175;-42
2022/12/17 16:30:57;;;;;;;;;;;;;;;;;;5112280;28;1097;-41
2022/12/17 16:33:24;;;;;;;;;;;;;;;;;;5112214;28;990;-41
2022/12/17 16:35:55;;;;;;;;;;;;;;;;;;5111991;28;1907;-40
2022/12/17 16:38:22;;;;;;;;;;;;;;;;;;5112228;27;1083;-40
2022/12/17 16:40:53;;;;;;;;;;;;;;;;;;5111921;28;1205;-41
2022/12/17 16:43:20;;;;;;;;;;;;;;;;;;5112068;28;1066;-41
2022/12/17 16:45:48;;;;;;;;;;;;;;;;;;5111271;28;1112;-42
2022/12/17 16:48:18;;;;;;;;;;;;;;;;;;5112061;28;1438;-41
2022/12/17 16:50:45;;;;;;;;;;;;;;;;;;5111846;28;1226;-42
2022/12/17 16:53:12;;;;;;;;;;;;;;;;;;5111687;28;1067;-40
2022/12/17 16:55:45;;;;;;;;;;;;;;;;;;5110077;28;1915;-41
2022/12/17 16:58:13;;;;;;;;;;;;;;;;;;5111554;28;1030;-40
2022/12/17 17:00:40;;;;;;;;;;;;;;;;;;5110977;28;1023;-40
2022/12/17 17:03:08;;;;;;;;;;;;;;;;;;5111240;28;1212;-40
2022/12/17 17:05:37;;;;;;;;;;;;;;;;;;5099615;28;1375;-41
2022/12/17 17:08:04;;;;;;;;;;;;;;;;;;5090851;28;1097;-40
2022/12/17 17:10:33;;;;;;;;;;;;;;;;;;5090209;28;1074;-41
2022/12/17 17:13:00;;;;;;;;;;;;;;;;;;5089524;28;1188;-42
2022/12/17 17:15:27;;;;;;;;;;;;;;;;;;5089857;28;1912;-42
2022/12/17 17:17:54;;;;;;;;;;;;;;;;;;5089633;28;1019;-41
2022/12/17 17:20:30;;;;;;;;;;;;;;;;;;5089412;28;1258;-40
2022/12/17 17:22:58;;;;;;;;;;;;;;;;;;5089680;28;955;-41
2022/12/17 17:25:25;;;;;;;;;;;;;;;;;;5089500;28;982;-40
2022/12/17 17:28:09;;;;;;;;;;;;;;;;;;5089535;28;986;-42
2022/12/17 17:30:36;;;;;;;;;;;;;;;;;;5089397;28;1171;-41
2022/12/17 17:33:04;;;;;;;;;;;;;;;;;;5089164;28;1184;-40
2022/12/17 17:35:31;;;;;;;;;;;;;;;;;;5089021;28;1914;-41
2022/12/17 17:37:58;;;;;;;;;;;;;;;;;;5089166;28;1049;-41
2022/12/17 17:40:25;;;;;;;;;;;;;;;;;;5089603;28;914;-40
2022/12/17 17:42:52;;;;;;;;;;;;;;;;;;5104888;28;1796;-41
2022/12/17 17:45:19;;;;;;;;;;;;;;;;;;5089352;28;1058;-41
2022/12/17 17:47:46;;;;;;;;;;;;;;;;;;5089227;28;1134;-44
2022/12/17 17:50:13;;;;;;;;;;;;;;;;;;5089204;28;1131;-41
2022/12/17 17:52:41;;;;;;;;;;;;;;;;;;5089169;28;1082;-40
2022/12/17 17:55:08;;;;;;;;;;;;;;;;;;5089270;28;1907;-40
2022/12/17 17:57:35;;;;;;;;;;;;;;;;;;5088633;28;955;-42
2022/12/17 18:00:03;;;;;;;;;;;;;;;;;;5088846;28;1002;-41
2022/12/17 18:02:30;;;;;;;;;;;;;;;;;;5089086;28;1342;-42
2022/12/17 18:04:58;;;;;;;;;;;;;;;;;;5096643;28;1173;-40
2022/12/17 18:07:25;;;;;;;;;;;;;;;;;;5109798;28;1171;-40
2022/12/17 18:09:53;;;;;;;;;;;;;;;;;;5109260;28;1075;-41
2022/12/17 18:15:06;;;;;;;;;;;;;;;;;;5112914;28;1915;-41
2022/12/17 18:17:44;;;;;;;;;;;;;;;;;;5112859;28;1290;-40
2022/12/17 18:20:11;;;;;;;;;;;;;;;;;;5112767;28;1401;-42
2022/12/17 18:22:38;;;;;;;;;;;;;;;;;;5113112;28;1501;-41
2022/12/17 18:25:05;;;;;;;;;;;;;;;;;;5113036;28;930;-41
2022/12/17 18:27:32;;;;;;;;;;;;;;;;;;5112990;28;887;-41
2022/12/17 18:29:59;;;;;;;;;;;;;;;;;;5113181;28;954;-40
2022/12/17 18:32:27;;;;;;;;;;;;;;;;;;5113052;28;1187;-41
2022/12/17 18:34:54;;;;;;;;;;;;;;;;;;5111609;28;1912;-40
2022/12/17 18:37:21;;;;;;;;;;;;;;;;;;5112712;28;1455;-41
2022/12/17 18:39:48;;;;;;;;;;;;;;;;;;5112482;28;990;-41
2022/12/17 18:45:01;;;;;;;;;;;;;;;;;;5112601;28;1161;-40
2022/12/17 18:47:28;;;;;;;;;;;;;;;;;;5112737;28;951;-40
2022/12/17 18:49:55;;;;;;;;;;;;;;;;;;5112821;28;914;-40
2022/12/17 18:52:23;;;;;;;;;;;;;;;;;;5112541;28;937;-41
2022/12/17 18:54:50;;;;;;;;;;;;;;;;;;5112088;28;1977;-40
2022/12/17 18:57:17;;;;;;;;;;;;;;;;;;5112005;27;970;-40
2022/12/17 18:59:44;;;;;;;;;;;;;;;;;;5112102;28;1350;-40
2022/12/17 19:02:12;;;;;;;;;;;;;;;;;;5112371;28;898;-43
2022/12/17 19:04:39;;;;;;;;;;;;;;;;;;5106559;28;1161;-40
2022/12/17 19:07:06;;;;;;;;;;;;;;;;;;5091831;28;1092;-40
2022/12/17 19:09:34;;;;;;;;;;;;;;;;;;5091645;28;935;-40
2022/12/17 19:12:03;;;;;;;;;;;;;;;;;;5091419;28;1085;-41
2022/12/17 19:14:30;;;;;;;;;;;;;;;;;;5091480;28;1981;-40
2022/12/17 19:16:58;;;;;;;;;;;;;;;;;;5091787;28;1158;-40
2022/12/17 19:19:26;;;;;;;;;;;;;;;;;;5091501;28;1211;-40
2022/12/17 19:21:54;;;;;;;;;;;;;;;;;;5091600;28;978;-40
2022/12/17 19:24:21;;;;;;;;;;;;;;;;;;5089589;28;1212;-40
2022/12/17 19:26:48;;;;;;;;;;;;;;;;;;5091414;28;1044;-41
2022/12/17 19:29:16;;;;;;;;;;;;;;;;;;5091500;28;1007;-42
2022/12/17 19:31:44;;;;;;;;;;;;;;;;;;5091126;28;912;-40
2022/12/17 19:34:12;;;;;;;;;;;;;;;;;;5091419;28;963;-40
2022/12/17 19:36:40;;;;;;;;;;;;;;;;;;5091227;28;1886;-40
2022/12/17 19:39:09;;;;;;;;;;;;;;;;;;5090952;28;1155;-43
2022/12/17 19:41:36;;;;;;;;;;;;;;;;;;5090923;28;979;-41
2022/12/17 19:44:05;;;;;;;;;;;;;;;;;;5091523;28;1077;-40
2022/12/17 19:46:33;;;;;;;;;;;;;;;;;;5090597;28;974;-40
2022/12/17 19:49:03;;;;;;;;;;;;;;;;;;5090997;28;1063;-42
2022/12/17 19:51:30;;;;;;;;;;;;;;;;;;5091030;28;1202;-43
2022/12/17 19:53:58;;;;;;;;;;;;;;;;;;5091242;28;919;-40
2022/12/17 19:56:34;;;;;;;;;;;;;;;;;;5090632;28;1902;-40
2022/12/17 19:59:02;;;;;;;;;;;;;;;;;;5090767;28;1258;-40
2022/12/17 20:01:30;;;;;;;;;;;;;;;;;;5090962;28;1157;-40
2022/12/17 20:03:58;;;;;;;;;;;;;;;;;;5090899;28;1402;-40
2022/12/17 20:06:27;;;;;;;;;;;;;;;;;;5090874;28;932;-41
2022/12/17 20:08:54;;;;;;;;;;;;;;;;;;5090855;28;1083;-40
2022/12/17 20:11:33;;;;;;;;;;;;;;;;;;5090455;28;934;-40
2022/12/17 20:14:07;;;;;;;;;;;;;;;;;;5090636;28;1139;-44
2022/12/17 20:16:36;;;;;;;;;;;;;;;;;;5089235;28;1910;-41
2022/12/17 20:19:03;;;;;;;;;;;;;;;;;;5090426;28;1096;-39
2022/12/17 20:21:30;;;;;;;;;;;;;;;;;;5090285;28;952;-40
2022/12/17 20:23:58;;;;;;;;;;;;;;;;;;5090572;28;1059;-41
2022/12/17 20:26:25;;;;;;;;;;;;;;;;;;5090222;28;998;-40
2022/12/17 20:28:53;;;;;;;;;;;;;;;;;;5090479;28;995;-41
2022/12/17 20:31:20;;;;;;;;;;;;;;;;;;5089904;28;1014;-41
2022/12/17 20:33:47;;;;;;;;;;;;;;;;;;5100503;28;1151;-41
2022/12/17 20:36:16;;;;;;;;;;;;;;;;;;5109870;28;1906;-43
2022/12/17 20:38:43;;;;;;;;;;;;;;;;;;5110315;28;1050;-42
2022/12/17 20:41:15;;;;;;;;;;;;;;;;;;5110204;28;956;-45
2022/12/17 20:43:42;;;;;;;;;;;;;;;;;;5110213;28;998;-41
2022/12/17 20:46:10;;;;;;;;;;;;;;;;;;5110364;28;948;-40
2022/12/17 20:48:37;;;;;;;;;;;;;;;;;;5110360;28;1013;-40
2022/12/17 20:51:15;;;;;;;;;;;;;;;;;;5110328;28;1163;-40
2022/12/17 20:53:43;;;;;;;;;;;;;;;;;;5110284;28;1031;-40
2022/12/17 20:56:12;;;;;;;;;;;;;;;;;;5110070;28;1973;-41
2022/12/17 20:58:39;;;;;;;;;;;;;;;;;;5110197;28;982;-40
2022/12/17 21:01:08;;;;;;;;;;;;;;;;;;5110128;28;1013;-41
2022/12/17 21:03:35;;;;;;;;;;;;;;;;;;5110172;28;915;-41
2022/12/17 21:06:04;;;;;;;;;;;;;;;;;;5110149;28;1095;-41
2022/12/17 21:08:31;;;;;;;;;;;;;;;;;;5110423;28;952;-41
2022/12/17 21:10:58;;;;;;;;;;;;;;;;;;5110168;28;975;-40
2022/12/17 21:13:28;;;;;;;;;;;;;;;;;;5110460;28;1102;-40
2022/12/17 21:15:56;;;;;;;;;;;;;;;;;;5110048;28;1915;-41
2022/12/17 21:18:24;;;;;;;;;;;;;;;;;;5108571;28;1047;-41
2022/12/17 21:20:55;;;;;;;;;;;;;;;;;;5109737;28;1055;-42
2022/12/17 21:23:23;;;;;;;;;;;;;;;;;;5109563;28;1292;-41
2022/12/17 21:26:06;;;;;;;;;;;;;;;;;;5109807;28;894;-42
2022/12/17 21:28:35;;;;;;;;;;;;;;;;;;5109861;28;936;-40
2022/12/17 21:31:02;;;;;;;;;;;;;;;;;;5109754;28;1394;-42
2022/12/17 21:33:30;;;;;;;;;;;;;;;;;;5109100;28;1065;-40
2022/12/17 21:35:59;;;;;;;;;;;;;;;;;;5110148;28;2001;-44
2022/12/17 21:38:26;;;;;;;;;;;;;;;;;;5109701;28;1071;-42
2022/12/17 21:40:55;;;;;;;;;;;;;;;;;;5109477;28;1031;-40
2022/12/17 21:43:23;;;;;;;;;;;;;;;;;;5109815;28;1053;-41
2022/12/17 21:45:55;;;;;;;;;;;;;;;;;;5108215;28;1201;-40
2022/12/17 21:48:22;;;;;;;;;;;;;;;;;;5113962;28;939;-41
2022/12/17 21:50:49;;;;;;;;;;;;;;;;;;5113405;28;1202;-40
2022/12/17 21:53:16;;;;;;;;;;;;;;;;;;5113808;28;1030;-42
2022/12/17 21:55:44;;;;;;;;;;;;;;;;;;5113232;28;1916;-40
2022/12/17 21:58:11;;;;;;;;;;;;;;;;;;5113662;28;995;-40
2022/12/17 22:00:39;;;;;;;;;;;;;;;;;;5113655;28;886;-39
2022/12/17 22:03:07;;;;;;;;;;;;;;;;;;5113622;28;1221;-41
2022/12/17 22:05:37;;;;;;;;;;;;;;;;;;5113237;28;1167;-41
2022/12/17 22:08:04;;;;;;;;;;;;;;;;;;5113278;28;1209;-40
2022/12/17 22:10:31;;;;;;;;;;;;;;;;;;5113646;28;1149;-40
2022/12/17 22:15:44;;;;;;;;;;;;;;;;;;5113146;28;1907;-40
2022/12/17 22:18:14;;;;;;;;;;;;;;;;;;5113066;28;1235;-40
2022/12/17 22:20:41;;;;;;;;;;;;;;;;;;5112883;28;1164;-41
2022/12/17 22:23:08;;;;;;;;;;;;;;;;;;5113317;28;1077;-40
2022/12/17 22:25:36;;;;;;;;;;;;;;;;;;5113381;28;1375;-40
2022/12/17 22:28:04;;;;;;;;;;;;;;;;;;5113077;28;988;-42
2022/12/17 22:33:16;;;;;;;;;;;;;;;;;;5112787;28;998;-41
2022/12/17 22:36:04;;;;;;;;;;;;;;;;;;5112897;28;1916;-41
2022/12/17 22:38:51;;;;;;;;;;;;;;;;;;5112935;28;1246;-44
2022/12/17 22:44:44;;;;;;;;;;;;;;;;;;5112771;28;993;-42
2022/12/17 22:47:19;;;;;;;;;;;;;;;;;;5112696;28;1094;-42
2022/12/17 22:49:46;;;;;;;;;;;;;;;;;;5112447;28;1016;-42
2022/12/17 22:52:13;;;;;;;;;;;;;;;;;;5112791;28;1100;-41
2022/12/17 22:54:41;;;;;;;;;;;;;;;;;;5112820;28;1208;-42
2022/12/17 22:57:10;;;;;;;;;;;;;;;;;;5112505;28;1977;-42
2022/12/17 22:59:37;;;;;;;;;;;;;;;;;;5111657;28;939;-40
2022/12/17 23:02:06;;;;;;;;;;;;;;;;;;5112470;28;1058;-41
2022/12/17 23:04:33;;;;;;;;;;;;;;;;;;5112232;28;1095;-42
2022/12/17 23:07:01;;;;;;;;;;;;;;;;;;5112280;28;1184;-41
2022/12/17 23:09:28;;;;;;;;;;;;;;;;;;5112475;28;1089;-43
2022/12/17 23:11:55;;;;;;;;;;;;;;;;;;5112388;28;910;-42
2022/12/17 23:14:22;;;;;;;;;;;;;;;;;;5112368;28;887;-42
2022/12/17 23:16:49;;;;;;;;;;;;;;;;;;5111806;28;1902;-42
2022/12/17 23:19:17;;;;;;;;;;;;;;;;;;5111605;28;1064;-42
2022/12/17 23:21:44;;;;;;;;;;;;;;;;;;5111938;28;1250;-43
2022/12/17 23:24:11;;;;;;;;;;;;;;;;;;5111488;27;903;-41
2022/12/17 23:26:39;;;;;;;;;;;;;;;;;;5111804;28;1351;-42
2022/12/17 23:29:07;;;;;;;;;;;;;;;;;;5111852;28;919;-42
2022/12/17 23:31:36;;;;;;;;;;;;;;;;;;5111764;28;958;-42
2022/12/17 23:34:03;;;;;;;;;;;;;;;;;;5111955;28;994;-41
2022/12/17 23:36:31;;;;;;;;;;;;;;;;;;5111171;28;1915;-41
2022/12/17 23:38:58;;;;;;;;;;;;;;;;;;5112161;28;1093;-42
2022/12/17 23:41:27;;;;;;;;;;;;;;;;;;5110535;28;1792;-40
2022/12/17 23:43:54;;;;;;;;;;;;;;;;;;5111486;28;1044;-42
2022/12/17 23:46:23;;;;;;;;;;;;;;;;;;5111815;28;938;-42
2022/12/17 23:48:50;;;;;;;;;;;;;;;;;;5111711;28;1037;-42
2022/12/17 23:51:18;;;;;;;;;;;;;;;;;;5111661;28;1168;-43
2022/12/17 23:53:45;;;;;;;;;;;;;;;;;;5111252;28;936;-43
2022/12/17 23:56:19;;;;;;;;;;;;;;;;;;5111512;28;1949;-42
2022/12/17 23:58:46;;;;;;;;;;;;;;;;;;5110730;28;1125;-42
